sensor_id;sensor_type;location;lat;lon;timestamp;P1;durP1;ratioP1;P2;durP2;ratioP2
54983;SDS011;40884;53.562;9.940;2023-07-31T00:00:43;10.33;;;2.23;;
54983;SDS011;40884;53.562;9.940;2023-07-31T00:01:43;7.07;;;2.40;;
54983;SDS011;40884;53.562;9.940;2023-07-31T00:02:43;5.23;;;1.70;;
54983;SDS011;40884;53.562;9.940;2023-07-31T00:03:44;5.63;;;2.00;;
54983;SDS011;40884;53.562;9.940;2023-07-31T00:04:44;7.10;;;2.30;;
54983;SDS011;40884;53.562;9.940;2023-07-31T00:05:44;6.97;;;2.63;;
54983;SDS011;40884;53.562;9.940;2023-07-31T00:06:44;6.43;;;2.10;;
54983;SDS011;40884;53.562;9.940;2023-07-31T00:07:44;6.83;;;2.00;;
54983;SDS011;40884;53.562;9.940;2023-07-31T00:08:44;8.03;;;1.73;;
54983;SDS011;40884;53.562;9.940;2023-07-31T00:09:44;8.00;;;2.20;;
54983;SDS011;40884;53.562;9.940;2023-07-31T00:10:44;4.37;;;1.80;;
54983;SDS011;40884;53.562;9.940;2023-07-31T00:11:45;5.33;;;2.00;;
54983;SDS011;40884;53.562;9.940;2023-07-31T00:12:45;6.17;;;1.80;;
54983;SDS011;40884;53.562;9.940;2023-07-31T00:13:45;3.77;;;1.87;;
54983;SDS011;40884;53.562;9.940;2023-07-31T00:14:45;7.80;;;2.43;;
54983;SDS011;40884;53.562;9.940;2023-07-31T00:15:45;6.43;;;1.93;;
54983;SDS011;40884;53.562;9.940;2023-07-31T00:16:45;6.30;;;1.87;;
54983;SDS011;40884;53.562;9.940;2023-07-31T00:17:46;4.57;;;1.53;;
54983;SDS011;40884;53.562;9.940;2023-07-31T00:18:46;5.83;;;1.70;;
54983;SDS011;40884;53.562;9.940;2023-07-31T00:19:46;4.47;;;1.47;;
54983;SDS011;40884;53.562;9.940;2023-07-31T00:20:46;5.97;;;2.13;;
54983;SDS011;40884;53.562;9.940;2023-07-31T00:21:46;3.50;;;1.70;;
54983;SDS011;40884;53.562;9.940;2023-07-31T00:22:46;7.33;;;1.60;;
54983;SDS011;40884;53.562;9.940;2023-07-31T00:23:46;5.30;;;1.60;;
54983;SDS011;40884;53.562;9.940;2023-07-31T00:24:46;3.50;;;1.60;;
54983;SDS011;40884;53.562;9.940;2023-07-31T00:25:46;6.20;;;1.93;;
54983;SDS011;40884;53.562;9.940;2023-07-31T00:26:47;7.13;;;2.00;;
54983;SDS011;40884;53.562;9.940;2023-07-31T00:27:47;5.70;;;1.70;;
54983;SDS011;40884;53.562;9.940;2023-07-31T00:28:47;6.03;;;2.10;;
54983;SDS011;40884;53.562;9.940;2023-07-31T00:29:48;7.60;;;2.23;;
54983;SDS011;40884;53.562;9.940;2023-07-31T00:30:48;5.73;;;2.00;;
54983;SDS011;40884;53.562;9.940;2023-07-31T00:31:48;6.67;;;2.17;;
54983;SDS011;40884;53.562;9.940;2023-07-31T00:32:48;2.13;;;1.50;;
54983;SDS011;40884;53.562;9.940;2023-07-31T00:33:48;5.00;;;1.80;;
54983;SDS011;40884;53.562;9.940;2023-07-31T00:34:49;5.20;;;1.90;;
54983;SDS011;40884;53.562;9.940;2023-07-31T00:35:49;6.27;;;1.70;;
54983;SDS011;40884;53.562;9.940;2023-07-31T00:36:49;5.97;;;2.03;;
54983;SDS011;40884;53.562;9.940;2023-07-31T00:37:50;6.87;;;2.00;;
54983;SDS011;40884;53.562;9.940;2023-07-31T00:38:50;5.00;;;2.10;;
54983;SDS011;40884;53.562;9.940;2023-07-31T00:39:50;5.87;;;1.93;;
54983;SDS011;40884;53.562;9.940;2023-07-31T00:40:50;7.07;;;1.90;;
54983;SDS011;40884;53.562;9.940;2023-07-31T00:41:51;6.33;;;2.20;;
54983;SDS011;40884;53.562;9.940;2023-07-31T00:42:51;6.17;;;2.03;;
54983;SDS011;40884;53.562;9.940;2023-07-31T00:43:51;6.10;;;2.13;;
54983;SDS011;40884;53.562;9.940;2023-07-31T00:44:51;6.23;;;2.00;;
54983;SDS011;40884;53.562;9.940;2023-07-31T00:45:51;6.13;;;2.13;;
54983;SDS011;40884;53.562;9.940;2023-07-31T00:46:52;6.40;;;1.90;;
54983;SDS011;40884;53.562;9.940;2023-07-31T00:47:52;7.17;;;2.50;;
54983;SDS011;40884;53.562;9.940;2023-07-31T00:48:52;7.70;;;2.43;;
54983;SDS011;40884;53.562;9.940;2023-07-31T00:49:52;5.73;;;1.77;;
54983;SDS011;40884;53.562;9.940;2023-07-31T00:50:52;6.63;;;1.87;;
54983;SDS011;40884;53.562;9.940;2023-07-31T00:51:53;5.20;;;1.83;;
54983;SDS011;40884;53.562;9.940;2023-07-31T00:52:53;5.17;;;2.13;;
54983;SDS011;40884;53.562;9.940;2023-07-31T00:53:54;6.60;;;2.17;;
54983;SDS011;40884;53.562;9.940;2023-07-31T00:54:54;6.07;;;2.30;;
54983;SDS011;40884;53.562;9.940;2023-07-31T00:55:54;9.47;;;2.23;;
54983;SDS011;40884;53.562;9.940;2023-07-31T00:56:54;7.30;;;2.30;;
54983;SDS011;40884;53.562;9.940;2023-07-31T00:57:55;4.80;;;2.03;;
54983;SDS011;40884;53.562;9.940;2023-07-31T00:58:56;6.37;;;2.40;;
54983;SDS011;40884;53.562;9.940;2023-07-31T00:59:56;3.93;;;2.10;;
54983;SDS011;40884;53.562;9.940;2023-07-31T01:00:56;5.20;;;2.50;;
54983;SDS011;40884;53.562;9.940;2023-07-31T01:01:56;7.13;;;2.10;;
54983;SDS011;40884;53.562;9.940;2023-07-31T01:02:56;7.90;;;2.30;;
54983;SDS011;40884;53.562;9.940;2023-07-31T01:03:56;7.57;;;2.57;;
54983;SDS011;40884;53.562;9.940;2023-07-31T01:04:56;5.33;;;2.37;;
54983;SDS011;40884;53.562;9.940;2023-07-31T01:06:02;6.53;;;2.77;;
54983;SDS011;40884;53.562;9.940;2023-07-31T01:07:13;5.60;;;2.17;;
54983;SDS011;40884;53.562;9.940;2023-07-31T01:08:32;6.83;;;2.30;;
54983;SDS011;40884;53.562;9.940;2023-07-31T01:09:47;13.50;;;2.37;;
54983;SDS011;40884;53.562;9.940;2023-07-31T01:10:51;6.03;;;2.40;;
54983;SDS011;40884;53.562;9.940;2023-07-31T01:11:53;6.70;;;2.47;;
54983;SDS011;40884;53.562;9.940;2023-07-31T01:12:56;6.87;;;2.60;;
54983;SDS011;40884;53.562;9.940;2023-07-31T01:13:56;8.13;;;2.33;;
54983;SDS011;40884;53.562;9.940;2023-07-31T01:16:03;6.07;;;2.10;;
54983;SDS011;40884;53.562;9.940;2023-07-31T01:17:03;6.60;;;2.27;;
54983;SDS011;40884;53.562;9.940;2023-07-31T01:18:03;6.40;;;2.57;;
54983;SDS011;40884;53.562;9.940;2023-07-31T01:19:04;8.03;;;2.47;;
54983;SDS011;40884;53.562;9.940;2023-07-31T01:20:10;8.80;;;2.30;;
54983;SDS011;40884;53.562;9.940;2023-07-31T01:21:21;4.60;;;2.00;;
54983;SDS011;40884;53.562;9.940;2023-07-31T01:22:28;6.40;;;2.57;;
54983;SDS011;40884;53.562;9.940;2023-07-31T01:27:05;6.40;;;2.50;;
54983;SDS011;40884;53.562;9.940;2023-07-31T01:28:07;8.20;;;2.40;;
54983;SDS011;40884;53.562;9.940;2023-07-31T01:30:11;5.60;;;2.30;;
54983;SDS011;40884;53.562;9.940;2023-07-31T01:30:41;5.77;;;2.37;;
54983;SDS011;40884;53.562;9.940;2023-07-31T01:31:43;5.70;;;2.10;;
54983;SDS011;40884;53.562;9.940;2023-07-31T01:32:47;5.43;;;2.10;;
54983;SDS011;40884;53.562;9.940;2023-07-31T01:33:48;8.50;;;2.23;;
54983;SDS011;40884;53.562;9.940;2023-07-31T01:34:48;7.83;;;2.30;;
54983;SDS011;40884;53.562;9.940;2023-07-31T01:35:49;6.23;;;2.20;;
54983;SDS011;40884;53.562;9.940;2023-07-31T01:36:49;6.27;;;2.90;;
54983;SDS011;40884;53.562;9.940;2023-07-31T01:37:52;7.23;;;2.30;;
54983;SDS011;40884;53.562;9.940;2023-07-31T01:38:52;6.27;;;2.20;;
54983;SDS011;40884;53.562;9.940;2023-07-31T01:39:52;8.00;;;2.40;;
54983;SDS011;40884;53.562;9.940;2023-07-31T01:40:52;5.53;;;2.30;;
54983;SDS011;40884;53.562;9.940;2023-07-31T01:41:52;5.10;;;2.47;;
54983;SDS011;40884;53.562;9.940;2023-07-31T01:42:54;8.00;;;2.23;;
54983;SDS011;40884;53.562;9.940;2023-07-31T01:43:54;5.00;;;1.80;;
54983;SDS011;40884;53.562;9.940;2023-07-31T01:44:54;5.23;;;2.00;;
54983;SDS011;40884;53.562;9.940;2023-07-31T01:45:54;6.40;;;1.97;;
54983;SDS011;40884;53.562;9.940;2023-07-31T01:46:55;4.07;;;2.10;;
54983;SDS011;40884;53.562;9.940;2023-07-31T01:47:55;5.70;;;1.90;;
54983;SDS011;40884;53.562;9.940;2023-07-31T01:48:55;6.33;;;1.80;;
54983;SDS011;40884;53.562;9.940;2023-07-31T01:49:55;5.00;;;2.10;;
54983;SDS011;40884;53.562;9.940;2023-07-31T01:50:55;10.17;;;2.30;;
54983;SDS011;40884;53.562;9.940;2023-07-31T01:51:55;5.63;;;2.10;;
54983;SDS011;40884;53.562;9.940;2023-07-31T01:52:56;4.77;;;2.40;;
54983;SDS011;40884;53.562;9.940;2023-07-31T01:53:56;10.17;;;2.53;;
54983;SDS011;40884;53.562;9.940;2023-07-31T01:54:56;4.40;;;1.93;;
54983;SDS011;40884;53.562;9.940;2023-07-31T01:55:56;5.07;;;2.10;;
54983;SDS011;40884;53.562;9.940;2023-07-31T01:56:56;7.27;;;2.50;;
54983;SDS011;40884;53.562;9.940;2023-07-31T01:57:56;3.40;;;1.93;;
54983;SDS011;40884;53.562;9.940;2023-07-31T01:58:57;5.67;;;2.40;;
54983;SDS011;40884;53.562;9.940;2023-07-31T01:59:57;4.67;;;2.30;;
54983;SDS011;40884;53.562;9.940;2023-07-31T02:00:57;6.00;;;2.33;;
54983;SDS011;40884;53.562;9.940;2023-07-31T02:01:58;5.17;;;2.20;;
54983;SDS011;40884;53.562;9.940;2023-07-31T02:02:59;6.67;;;2.63;;
54983;SDS011;40884;53.562;9.940;2023-07-31T02:03:59;7.70;;;2.83;;
54983;SDS011;40884;53.562;9.940;2023-07-31T02:04:59;6.03;;;2.30;;
54983;SDS011;40884;53.562;9.940;2023-07-31T02:05:59;6.87;;;2.10;;
54983;SDS011;40884;53.562;9.940;2023-07-31T02:06:59;4.63;;;2.27;;
54983;SDS011;40884;53.562;9.940;2023-07-31T02:07:59;4.53;;;1.93;;
54983;SDS011;40884;53.562;9.940;2023-07-31T02:09:01;5.77;;;2.10;;
54983;SDS011;40884;53.562;9.940;2023-07-31T02:10:01;7.00;;;2.50;;
54983;SDS011;40884;53.562;9.940;2023-07-31T02:11:01;5.93;;;2.30;;
54983;SDS011;40884;53.562;9.940;2023-07-31T02:12:01;5.97;;;2.30;;
54983;SDS011;40884;53.562;9.940;2023-07-31T02:13:02;3.77;;;2.10;;
54983;SDS011;40884;53.562;9.940;2023-07-31T02:14:02;5.07;;;2.33;;
54983;SDS011;40884;53.562;9.940;2023-07-31T02:15:02;6.23;;;2.43;;
54983;SDS011;40884;53.562;9.940;2023-07-31T02:16:02;6.13;;;2.43;;
54983;SDS011;40884;53.562;9.940;2023-07-31T02:17:02;4.43;;;2.17;;
54983;SDS011;40884;53.562;9.940;2023-07-31T02:18:03;4.87;;;2.10;;
54983;SDS011;40884;53.562;9.940;2023-07-31T02:19:03;4.47;;;2.23;;
54983;SDS011;40884;53.562;9.940;2023-07-31T02:20:03;3.60;;;1.93;;
54983;SDS011;40884;53.562;9.940;2023-07-31T02:21:03;6.67;;;2.73;;
54983;SDS011;40884;53.562;9.940;2023-07-31T02:22:03;3.50;;;2.10;;
54983;SDS011;40884;53.562;9.940;2023-07-31T02:23:04;5.97;;;2.10;;
54983;SDS011;40884;53.562;9.940;2023-07-31T02:24:05;5.70;;;2.20;;
54983;SDS011;40884;53.562;9.940;2023-07-31T02:25:05;4.53;;;2.50;;
54983;SDS011;40884;53.562;9.940;2023-07-31T02:26:05;4.40;;;2.40;;
54983;SDS011;40884;53.562;9.940;2023-07-31T02:27:06;7.00;;;2.43;;
54983;SDS011;40884;53.562;9.940;2023-07-31T02:28:06;8.93;;;2.97;;
54983;SDS011;40884;53.562;9.940;2023-07-31T02:29:06;4.60;;;2.10;;
54983;SDS011;40884;53.562;9.940;2023-07-31T02:30:07;12.57;;;3.00;;
54983;SDS011;40884;53.562;9.940;2023-07-31T02:31:07;5.13;;;2.00;;
54983;SDS011;40884;53.562;9.940;2023-07-31T02:32:08;5.00;;;2.30;;
54983;SDS011;40884;53.562;9.940;2023-07-31T02:33:09;5.70;;;2.40;;
54983;SDS011;40884;53.562;9.940;2023-07-31T02:34:09;5.80;;;2.00;;
54983;SDS011;40884;53.562;9.940;2023-07-31T02:35:09;6.20;;;2.10;;
54983;SDS011;40884;53.562;9.940;2023-07-31T02:36:10;6.47;;;2.07;;
54983;SDS011;40884;53.562;9.940;2023-07-31T02:37:11;8.27;;;2.00;;
54983;SDS011;40884;53.562;9.940;2023-07-31T02:38:11;6.07;;;2.13;;
54983;SDS011;40884;53.562;9.940;2023-07-31T02:39:11;8.13;;;2.37;;
54983;SDS011;40884;53.562;9.940;2023-07-31T02:40:11;4.10;;;2.20;;
54983;SDS011;40884;53.562;9.940;2023-07-31T02:41:11;3.43;;;1.90;;
54983;SDS011;40884;53.562;9.940;2023-07-31T02:42:12;4.83;;;1.90;;
54983;SDS011;40884;53.562;9.940;2023-07-31T02:43:12;4.93;;;2.47;;
54983;SDS011;40884;53.562;9.940;2023-07-31T02:44:13;4.57;;;2.30;;
54983;SDS011;40884;53.562;9.940;2023-07-31T02:45:13;6.27;;;2.50;;
54983;SDS011;40884;53.562;9.940;2023-07-31T02:46:13;5.10;;;2.60;;
54983;SDS011;40884;53.562;9.940;2023-07-31T02:47:13;6.27;;;2.00;;
54983;SDS011;40884;53.562;9.940;2023-07-31T02:48:13;5.13;;;2.17;;
54983;SDS011;40884;53.562;9.940;2023-07-31T02:49:13;4.70;;;2.17;;
54983;SDS011;40884;53.562;9.940;2023-07-31T02:50:13;6.50;;;2.27;;
54983;SDS011;40884;53.562;9.940;2023-07-31T02:51:13;5.07;;;2.23;;
54983;SDS011;40884;53.562;9.940;2023-07-31T02:52:13;2.83;;;1.90;;
54983;SDS011;40884;53.562;9.940;2023-07-31T02:53:14;7.10;;;2.33;;
54983;SDS011;40884;53.562;9.940;2023-07-31T02:54:14;4.90;;;2.37;;
54983;SDS011;40884;53.562;9.940;2023-07-31T02:55:14;5.17;;;2.20;;
54983;SDS011;40884;53.562;9.940;2023-07-31T02:56:14;4.33;;;2.10;;
54983;SDS011;40884;53.562;9.940;2023-07-31T02:57:14;4.20;;;2.30;;
54983;SDS011;40884;53.562;9.940;2023-07-31T02:58:14;3.73;;;2.03;;
54983;SDS011;40884;53.562;9.940;2023-07-31T02:59:14;6.83;;;2.20;;
54983;SDS011;40884;53.562;9.940;2023-07-31T03:00:14;5.93;;;2.60;;
54983;SDS011;40884;53.562;9.940;2023-07-31T03:01:15;6.83;;;2.60;;
54983;SDS011;40884;53.562;9.940;2023-07-31T03:02:15;5.93;;;2.50;;
54983;SDS011;40884;53.562;9.940;2023-07-31T03:03:15;6.17;;;2.20;;
54983;SDS011;40884;53.562;9.940;2023-07-31T03:04:15;6.40;;;2.40;;
54983;SDS011;40884;53.562;9.940;2023-07-31T03:05:15;5.43;;;2.33;;
54983;SDS011;40884;53.562;9.940;2023-07-31T03:06:16;4.77;;;1.83;;
54983;SDS011;40884;53.562;9.940;2023-07-31T03:07:16;6.70;;;2.80;;
54983;SDS011;40884;53.562;9.940;2023-07-31T03:08:16;5.20;;;2.07;;
54983;SDS011;40884;53.562;9.940;2023-07-31T03:09:19;4.93;;;2.13;;
54983;SDS011;40884;53.562;9.940;2023-07-31T03:10:19;5.73;;;2.40;;
54983;SDS011;40884;53.562;9.940;2023-07-31T03:11:19;3.77;;;2.07;;
54983;SDS011;40884;53.562;9.940;2023-07-31T03:12:19;3.70;;;1.93;;
54983;SDS011;40884;53.562;9.940;2023-07-31T03:13:19;3.80;;;2.13;;
54983;SDS011;40884;53.562;9.940;2023-07-31T03:14:19;7.17;;;2.20;;
54983;SDS011;40884;53.562;9.940;2023-07-31T03:15:19;5.50;;;2.20;;
54983;SDS011;40884;53.562;9.940;2023-07-31T03:16:20;6.83;;;2.53;;
54983;SDS011;40884;53.562;9.940;2023-07-31T03:17:20;4.53;;;2.13;;
54983;SDS011;40884;53.562;9.940;2023-07-31T03:18:20;4.07;;;2.40;;
54983;SDS011;40884;53.562;9.940;2023-07-31T03:19:20;5.47;;;2.50;;
54983;SDS011;40884;53.562;9.940;2023-07-31T03:20:20;3.07;;;1.90;;
54983;SDS011;40884;53.562;9.940;2023-07-31T03:21:20;4.47;;;2.00;;
54983;SDS011;40884;53.562;9.940;2023-07-31T03:22:20;4.83;;;2.43;;
54983;SDS011;40884;53.562;9.940;2023-07-31T03:23:21;5.97;;;2.43;;
54983;SDS011;40884;53.562;9.940;2023-07-31T03:24:21;4.63;;;2.13;;
54983;SDS011;40884;53.562;9.940;2023-07-31T03:25:21;4.70;;;2.23;;
54983;SDS011;40884;53.562;9.940;2023-07-31T03:26:21;5.40;;;2.20;;
54983;SDS011;40884;53.562;9.940;2023-07-31T03:27:21;4.13;;;2.33;;
54983;SDS011;40884;53.562;9.940;2023-07-31T03:28:21;4.67;;;2.30;;
54983;SDS011;40884;53.562;9.940;2023-07-31T03:29:21;5.73;;;2.40;;
54983;SDS011;40884;53.562;9.940;2023-07-31T03:30:21;4.30;;;2.07;;
54983;SDS011;40884;53.562;9.940;2023-07-31T03:31:22;3.27;;;2.20;;
54983;SDS011;40884;53.562;9.940;2023-07-31T03:32:22;5.27;;;2.33;;
54983;SDS011;40884;53.562;9.940;2023-07-31T03:33:22;5.87;;;2.50;;
54983;SDS011;40884;53.562;9.940;2023-07-31T03:34:22;4.20;;;2.13;;
54983;SDS011;40884;53.562;9.940;2023-07-31T03:35:22;3.83;;;2.40;;
54983;SDS011;40884;53.562;9.940;2023-07-31T03:36:23;4.17;;;2.10;;
54983;SDS011;40884;53.562;9.940;2023-07-31T03:37:23;6.70;;;2.40;;
54983;SDS011;40884;53.562;9.940;2023-07-31T03:38:23;3.37;;;1.90;;
54983;SDS011;40884;53.562;9.940;2023-07-31T03:39:23;3.73;;;2.10;;
54983;SDS011;40884;53.562;9.940;2023-07-31T03:40:24;4.17;;;2.63;;
54983;SDS011;40884;53.562;9.940;2023-07-31T03:41:24;3.23;;;2.43;;
54983;SDS011;40884;53.562;9.940;2023-07-31T03:42:24;4.00;;;2.10;;
54983;SDS011;40884;53.562;9.940;2023-07-31T03:43:24;4.83;;;2.60;;
54983;SDS011;40884;53.562;9.940;2023-07-31T03:44:24;5.43;;;2.30;;
54983;SDS011;40884;53.562;9.940;2023-07-31T03:45:25;4.17;;;2.40;;
54983;SDS011;40884;53.562;9.940;2023-07-31T03:46:25;5.87;;;2.50;;
54983;SDS011;40884;53.562;9.940;2023-07-31T03:47:25;5.80;;;2.60;;
54983;SDS011;40884;53.562;9.940;2023-07-31T03:48:26;4.87;;;2.60;;
54983;SDS011;40884;53.562;9.940;2023-07-31T03:49:26;4.40;;;2.23;;
54983;SDS011;40884;53.562;9.940;2023-07-31T03:50:26;4.93;;;2.23;;
54983;SDS011;40884;53.562;9.940;2023-07-31T03:51:26;4.73;;;2.03;;
54983;SDS011;40884;53.562;9.940;2023-07-31T03:52:26;4.90;;;2.07;;
54983;SDS011;40884;53.562;9.940;2023-07-31T03:53:26;6.63;;;2.30;;
54983;SDS011;40884;53.562;9.940;2023-07-31T03:54:26;3.50;;;1.97;;
54983;SDS011;40884;53.562;9.940;2023-07-31T03:55:26;2.40;;;1.73;;
54983;SDS011;40884;53.562;9.940;2023-07-31T03:56:26;4.57;;;2.10;;
54983;SDS011;40884;53.562;9.940;2023-07-31T03:57:27;4.37;;;2.07;;
54983;SDS011;40884;53.562;9.940;2023-07-31T03:58:27;3.93;;;1.90;;
54983;SDS011;40884;53.562;9.940;2023-07-31T03:59:27;3.93;;;2.20;;
54983;SDS011;40884;53.562;9.940;2023-07-31T04:00:27;3.60;;;2.43;;
54983;SDS011;40884;53.562;9.940;2023-07-31T04:01:27;5.50;;;2.07;;
54983;SDS011;40884;53.562;9.940;2023-07-31T04:02:27;4.23;;;2.03;;
54983;SDS011;40884;53.562;9.940;2023-07-31T04:03:27;3.13;;;1.83;;
54983;SDS011;40884;53.562;9.940;2023-07-31T04:04:28;3.80;;;2.10;;
54983;SDS011;40884;53.562;9.940;2023-07-31T04:05:29;4.10;;;2.13;;
54983;SDS011;40884;53.562;9.940;2023-07-31T04:06:30;3.10;;;1.97;;
54983;SDS011;40884;53.562;9.940;2023-07-31T04:07:33;2.27;;;2.07;;
54983;SDS011;40884;53.562;9.940;2023-07-31T04:08:33;3.50;;;2.17;;
54983;SDS011;40884;53.562;9.940;2023-07-31T04:09:33;3.07;;;2.17;;
54983;SDS011;40884;53.562;9.940;2023-07-31T04:10:33;4.40;;;2.30;;
54983;SDS011;40884;53.562;9.940;2023-07-31T04:11:33;2.93;;;2.00;;
54983;SDS011;40884;53.562;9.940;2023-07-31T04:12:33;3.50;;;2.00;;
54983;SDS011;40884;53.562;9.940;2023-07-31T04:13:33;4.37;;;2.27;;
54983;SDS011;40884;53.562;9.940;2023-07-31T04:14:33;2.20;;;1.77;;
54983;SDS011;40884;53.562;9.940;2023-07-31T04:15:34;4.53;;;1.90;;
54983;SDS011;40884;53.562;9.940;2023-07-31T04:16:34;3.63;;;2.10;;
54983;SDS011;40884;53.562;9.940;2023-07-31T04:17:34;3.37;;;1.80;;
54983;SDS011;40884;53.562;9.940;2023-07-31T04:18:34;3.10;;;1.80;;
54983;SDS011;40884;53.562;9.940;2023-07-31T04:19:34;2.77;;;1.90;;
54983;SDS011;40884;53.562;9.940;2023-07-31T04:20:34;2.93;;;1.90;;
54983;SDS011;40884;53.562;9.940;2023-07-31T04:21:34;2.40;;;1.70;;
54983;SDS011;40884;53.562;9.940;2023-07-31T04:22:34;4.70;;;2.50;;
54983;SDS011;40884;53.562;9.940;2023-07-31T04:23:34;3.30;;;2.33;;
54983;SDS011;40884;53.562;9.940;2023-07-31T04:24:35;2.23;;;2.00;;
54983;SDS011;40884;53.562;9.940;2023-07-31T04:25:35;4.10;;;2.23;;
54983;SDS011;40884;53.562;9.940;2023-07-31T04:26:35;3.20;;;2.00;;
54983;SDS011;40884;53.562;9.940;2023-07-31T04:27:35;3.60;;;1.90;;
54983;SDS011;40884;53.562;9.940;2023-07-31T04:28:35;5.77;;;2.10;;
54983;SDS011;40884;53.562;9.940;2023-07-31T04:29:35;3.20;;;2.07;;
54983;SDS011;40884;53.562;9.940;2023-07-31T04:30:35;3.37;;;2.10;;
54983;SDS011;40884;53.562;9.940;2023-07-31T04:31:36;3.90;;;1.80;;
54983;SDS011;40884;53.562;9.940;2023-07-31T04:32:36;3.37;;;1.70;;
54983;SDS011;40884;53.562;9.940;2023-07-31T04:33:36;3.33;;;2.10;;
54983;SDS011;40884;53.562;9.940;2023-07-31T04:34:36;3.40;;;1.90;;
54983;SDS011;40884;53.562;9.940;2023-07-31T04:35:36;3.60;;;2.10;;
54983;SDS011;40884;53.562;9.940;2023-07-31T04:36:36;3.37;;;2.10;;
54983;SDS011;40884;53.562;9.940;2023-07-31T04:37:36;2.37;;;2.17;;
54983;SDS011;40884;53.562;9.940;2023-07-31T04:38:36;2.57;;;1.97;;
54983;SDS011;40884;53.562;9.940;2023-07-31T04:39:36;4.47;;;2.00;;
54983;SDS011;40884;53.562;9.940;2023-07-31T04:40:37;3.37;;;2.20;;
54983;SDS011;40884;53.562;9.940;2023-07-31T04:41:37;2.63;;;2.07;;
54983;SDS011;40884;53.562;9.940;2023-07-31T04:42:37;3.07;;;1.97;;
54983;SDS011;40884;53.562;9.940;2023-07-31T04:43:37;3.67;;;1.97;;
54983;SDS011;40884;53.562;9.940;2023-07-31T04:44:37;3.70;;;2.00;;
54983;SDS011;40884;53.562;9.940;2023-07-31T04:45:37;2.80;;;1.83;;
54983;SDS011;40884;53.562;9.940;2023-07-31T04:46:37;3.30;;;2.00;;
54983;SDS011;40884;53.562;9.940;2023-07-31T04:47:38;2.57;;;2.03;;
54983;SDS011;40884;53.562;9.940;2023-07-31T04:48:38;2.90;;;2.10;;
54983;SDS011;40884;53.562;9.940;2023-07-31T04:49:38;3.17;;;1.53;;
54983;SDS011;40884;53.562;9.940;2023-07-31T04:50:38;2.23;;;1.70;;
54983;SDS011;40884;53.562;9.940;2023-07-31T04:51:38;2.93;;;1.83;;
54983;SDS011;40884;53.562;9.940;2023-07-31T04:52:38;3.87;;;1.90;;
54983;SDS011;40884;53.562;9.940;2023-07-31T04:53:38;4.67;;;2.00;;
54983;SDS011;40884;53.562;9.940;2023-07-31T04:54:38;2.37;;;1.57;;
54983;SDS011;40884;53.562;9.940;2023-07-31T04:55:38;2.60;;;1.80;;
54983;SDS011;40884;53.562;9.940;2023-07-31T04:56:39;2.50;;;1.50;;
54983;SDS011;40884;53.562;9.940;2023-07-31T04:57:39;2.13;;;1.57;;
54983;SDS011;40884;53.562;9.940;2023-07-31T04:58:39;3.17;;;1.80;;
54983;SDS011;40884;53.562;9.940;2023-07-31T04:59:39;1.97;;;1.50;;
54983;SDS011;40884;53.562;9.940;2023-07-31T05:00:39;3.13;;;1.77;;
54983;SDS011;40884;53.562;9.940;2023-07-31T05:01:39;2.70;;;1.83;;
54983;SDS011;40884;53.562;9.940;2023-07-31T05:02:39;1.97;;;1.73;;
54983;SDS011;40884;53.562;9.940;2023-07-31T05:03:39;2.70;;;2.00;;
54983;SDS011;40884;53.562;9.940;2023-07-31T05:04:39;2.53;;;1.83;;
54983;SDS011;40884;53.562;9.940;2023-07-31T05:05:40;2.63;;;1.83;;
54983;SDS011;40884;53.562;9.940;2023-07-31T05:06:40;2.53;;;1.90;;
54983;SDS011;40884;53.562;9.940;2023-07-31T05:07:40;2.50;;;2.07;;
54983;SDS011;40884;53.562;9.940;2023-07-31T05:08:40;2.27;;;1.80;;
54983;SDS011;40884;53.562;9.940;2023-07-31T05:09:40;2.57;;;1.70;;
54983;SDS011;40884;53.562;9.940;2023-07-31T05:10:40;2.03;;;1.83;;
54983;SDS011;40884;53.562;9.940;2023-07-31T05:11:41;2.23;;;1.70;;
54983;SDS011;40884;53.562;9.940;2023-07-31T05:12:41;2.67;;;1.77;;
54983;SDS011;40884;53.562;9.940;2023-07-31T05:13:41;1.93;;;1.73;;
54983;SDS011;40884;53.562;9.940;2023-07-31T05:14:41;3.63;;;1.90;;
54983;SDS011;40884;53.562;9.940;2023-07-31T05:15:41;2.37;;;1.73;;
54983;SDS011;40884;53.562;9.940;2023-07-31T05:16:41;3.00;;;1.93;;
54983;SDS011;40884;53.562;9.940;2023-07-31T05:17:41;3.80;;;1.70;;
54983;SDS011;40884;53.562;9.940;2023-07-31T05:18:41;2.47;;;1.90;;
54983;SDS011;40884;53.562;9.940;2023-07-31T05:19:41;2.33;;;1.50;;
54983;SDS011;40884;53.562;9.940;2023-07-31T05:20:42;1.70;;;1.60;;
54983;SDS011;40884;53.562;9.940;2023-07-31T05:21:42;2.23;;;2.00;;
54983;SDS011;40884;53.562;9.940;2023-07-31T05:22:42;2.73;;;1.77;;
54983;SDS011;40884;53.562;9.940;2023-07-31T05:23:42;2.40;;;1.70;;
54983;SDS011;40884;53.562;9.940;2023-07-31T05:24:42;3.33;;;1.90;;
54983;SDS011;40884;53.562;9.940;2023-07-31T05:25:42;1.77;;;1.63;;
54983;SDS011;40884;53.562;9.940;2023-07-31T05:26:42;1.50;;;1.40;;
54983;SDS011;40884;53.562;9.940;2023-07-31T05:27:42;3.00;;;1.60;;
54983;SDS011;40884;53.562;9.940;2023-07-31T05:28:42;2.33;;;1.80;;
54983;SDS011;40884;53.562;9.940;2023-07-31T05:29:43;2.17;;;1.97;;
54983;SDS011;40884;53.562;9.940;2023-07-31T05:30:43;2.20;;;1.80;;
54983;SDS011;40884;53.562;9.940;2023-07-31T05:31:43;1.70;;;1.60;;
54983;SDS011;40884;53.562;9.940;2023-07-31T05:32:43;2.73;;;2.07;;
54983;SDS011;40884;53.562;9.940;2023-07-31T05:33:43;2.20;;;1.60;;
54983;SDS011;40884;53.562;9.940;2023-07-31T05:34:43;2.97;;;1.90;;
54983;SDS011;40884;53.562;9.940;2023-07-31T05:35:43;1.83;;;1.70;;
54983;SDS011;40884;53.562;9.940;2023-07-31T05:36:43;3.33;;;1.93;;
54983;SDS011;40884;53.562;9.940;2023-07-31T05:37:43;2.10;;;1.70;;
54983;SDS011;40884;53.562;9.940;2023-07-31T05:38:44;2.93;;;1.80;;
54983;SDS011;40884;53.562;9.940;2023-07-31T05:39:44;1.83;;;1.67;;
54983;SDS011;40884;53.562;9.940;2023-07-31T05:40:44;2.73;;;1.70;;
54983;SDS011;40884;53.562;9.940;2023-07-31T05:41:44;2.83;;;1.80;;
54983;SDS011;40884;53.562;9.940;2023-07-31T05:42:44;3.20;;;1.77;;
54983;SDS011;40884;53.562;9.940;2023-07-31T05:43:44;2.77;;;2.20;;
54983;SDS011;40884;53.562;9.940;2023-07-31T05:44:44;2.27;;;1.63;;
54983;SDS011;40884;53.562;9.940;2023-07-31T05:45:45;3.50;;;1.90;;
54983;SDS011;40884;53.562;9.940;2023-07-31T05:46:45;2.67;;;1.80;;
54983;SDS011;40884;53.562;9.940;2023-07-31T05:47:45;2.10;;;1.90;;
54983;SDS011;40884;53.562;9.940;2023-07-31T05:48:45;3.63;;;2.30;;
54983;SDS011;40884;53.562;9.940;2023-07-31T05:49:45;2.23;;;1.90;;
54983;SDS011;40884;53.562;9.940;2023-07-31T05:50:45;1.57;;;1.47;;
54983;SDS011;40884;53.562;9.940;2023-07-31T05:51:45;2.10;;;1.90;;
54983;SDS011;40884;53.562;9.940;2023-07-31T05:52:45;1.60;;;1.50;;
54983;SDS011;40884;53.562;9.940;2023-07-31T05:53:46;2.90;;;2.00;;
54983;SDS011;40884;53.562;9.940;2023-07-31T05:54:46;2.23;;;1.90;;
54983;SDS011;40884;53.562;9.940;2023-07-31T05:55:46;2.73;;;2.20;;
54983;SDS011;40884;53.562;9.940;2023-07-31T05:56:46;2.90;;;2.00;;
54983;SDS011;40884;53.562;9.940;2023-07-31T05:57:46;2.50;;;2.00;;
54983;SDS011;40884;53.562;9.940;2023-07-31T05:58:46;2.80;;;2.00;;
54983;SDS011;40884;53.562;9.940;2023-07-31T05:59:46;3.10;;;2.07;;
54983;SDS011;40884;53.562;9.940;2023-07-31T06:00:46;2.20;;;1.80;;
54983;SDS011;40884;53.562;9.940;2023-07-31T06:01:47;3.70;;;2.13;;
54983;SDS011;40884;53.562;9.940;2023-07-31T06:02:47;2.33;;;1.87;;
54983;SDS011;40884;53.562;9.940;2023-07-31T06:03:47;2.23;;;2.03;;
54983;SDS011;40884;53.562;9.940;2023-07-31T06:04:47;3.30;;;1.90;;
54983;SDS011;40884;53.562;9.940;2023-07-31T06:05:47;1.93;;;1.77;;
54983;SDS011;40884;53.562;9.940;2023-07-31T06:06:48;2.50;;;2.30;;
54983;SDS011;40884;53.562;9.940;2023-07-31T06:07:48;2.20;;;2.00;;
54983;SDS011;40884;53.562;9.940;2023-07-31T06:08:48;2.67;;;2.07;;
54983;SDS011;40884;53.562;9.940;2023-07-31T06:09:48;2.07;;;1.87;;